createdAt,value
2023-10-09T00:00:31.474Z,12.50
2023-10-09T00:03:17.242Z,12.37
2023-10-09T00:06:03.975Z,12.88
2023-10-09T00:08:52.020Z,12.78
2023-10-09T00:11:43.030Z,12.74
2023-10-09T00:14:27.518Z,12.91
2023-10-09T00:17:22.810Z,12.38
2023-10-09T00:20:18.995Z,12.61
2023-10-09T00:23:03.194Z,12.61
2023-10-09T00:26:08.706Z,12.57
2023-10-09T00:28:53.452Z,12.87
2023-10-09T00:31:38.710Z,13.15
2023-10-09T00:34:23.620Z,13.31
2023-10-09T00:37:12.110Z,13.29
2023-10-09T00:39:58.344Z,13.18
2023-10-09T00:42:42.701Z,12.51
2023-10-09T00:45:33.406Z,12.39
2023-10-09T00:48:24.509Z,12.49
2023-10-09T00:51:17.211Z,12.79
2023-10-09T00:54:08.956Z,13.17
2023-10-09T00:56:59.364Z,12.65
2023-10-09T00:59:47.650Z,12.83
2023-10-09T01:02:38.094Z,12.23
2023-10-09T01:05:22.389Z,12.49
2023-10-09T01:08:17.478Z,12.39
2023-10-09T01:11:11.246Z,12.20
2023-10-09T01:13:57.646Z,11.48
2023-10-09T01:16:44.076Z,11.94
2023-10-09T01:19:29.349Z,11.35
2023-10-09T01:22:16.119Z,11.79
2023-10-09T01:25:07.274Z,11.67
2023-10-09T01:27:52.129Z,11.80
2023-10-09T01:30:42.933Z,11.94
2023-10-09T01:33:28.945Z,11.81
2023-10-09T01:36:16.374Z,11.40
2023-10-09T01:39:03.002Z,11.34
2023-10-09T01:41:49.844Z,11.28
2023-10-09T01:44:36.979Z,11.22
2023-10-09T01:47:22.918Z,11.62
2023-10-09T01:50:19.613Z,11.69
2023-10-09T01:53:04.259Z,11.31
2023-10-09T01:55:48.290Z,11.27
2023-10-09T01:58:33.803Z,11.63
2023-10-09T02:01:18.643Z,12.25
2023-10-09T02:04:10.435Z,12.61
2023-10-09T02:06:54.557Z,12.36
2023-10-09T02:09:46.005Z,12.09
2023-10-09T02:12:34.951Z,11.82
2023-10-09T02:15:41.258Z,11.85
2023-10-09T02:18:41.277Z,11.79
2023-10-09T02:21:34.024Z,11.43
2023-10-09T02:24:43.239Z,11.48
2023-10-09T02:27:47.397Z,11.65
2023-10-09T02:30:35.732Z,11.02
2023-10-09T02:33:28.969Z,11.57
2023-10-09T02:36:14.430Z,11.54
2023-10-09T02:38:59.406Z,11.58
2023-10-09T02:41:50.816Z,11.31
2023-10-09T02:44:40.970Z,11.13
2023-10-09T02:47:32.512Z,11.10
2023-10-09T02:50:29.612Z,11.37
2023-10-09T02:53:19.997Z,11.38
2023-10-09T02:56:14.294Z,11.01
2023-10-09T02:59:06.967Z,10.73
2023-10-09T03:01:54.051Z,10.56
2023-10-09T03:04:40.383Z,10.49
2023-10-09T03:07:24.802Z,10.99
2023-10-09T03:10:12.192Z,10.93
2023-10-09T03:12:56.202Z,10.62
2023-10-09T03:15:42.268Z,10.46
2023-10-09T03:18:26.409Z,10.54
2023-10-09T03:21:12.244Z,10.83
2023-10-09T03:23:57.691Z,10.91
2023-10-09T03:26:41.840Z,10.84
2023-10-09T03:29:28.781Z,10.86
2023-10-09T03:32:12.802Z,10.36
2023-10-09T03:34:56.927Z,10.28
2023-10-09T03:37:42.377Z,10.36
2023-10-09T03:40:26.660Z,10.08
2023-10-09T03:43:12.641Z,10.69
2023-10-09T03:45:58.550Z,10.54
2023-10-09T03:48:44.710Z,10.32
2023-10-09T03:51:29.913Z,10.15
2023-10-09T03:54:17.041Z,9.93
2023-10-09T03:57:01.408Z,10.07
2023-10-09T03:59:45.492Z,9.67
2023-10-09T04:02:30.408Z,10.38
2023-10-09T04:05:14.487Z,10.09
2023-10-09T04:08:00.361Z,9.73
2023-10-09T04:10:54.981Z,10.20
2023-10-09T04:13:41.538Z,10.42
2023-10-09T04:16:52.468Z,9.91
2023-10-09T04:19:49.414Z,10.36
2023-10-09T04:22:40.161Z,9.94
2023-10-09T04:25:28.326Z,10.20
2023-10-09T04:28:21.001Z,10.20
2023-10-09T04:31:07.772Z,10.45
2023-10-09T04:34:20.628Z,10.60
2023-10-09T04:37:21.034Z,10.81
2023-10-09T04:40:14.984Z,11.12
2023-10-09T04:43:00.652Z,11.07
2023-10-09T04:46:03.452Z,11.05
2023-10-09T04:48:48.020Z,11.56
2023-10-09T04:51:37.392Z,11.26
2023-10-09T04:54:40.461Z,11.16
2023-10-09T04:57:26.884Z,11.36
2023-10-09T05:00:23.915Z,11.02
2023-10-09T05:03:12.523Z,11.18
2023-10-09T05:06:22.010Z,11.15
2023-10-09T05:09:16.242Z,11.42
2023-10-09T05:12:16.937Z,11.64
2023-10-09T05:15:10.822Z,11.02
2023-10-09T05:17:57.884Z,11.64
2023-10-09T05:23:45.645Z,11.38
2023-10-09T05:26:38.798Z,10.67
2023-10-09T05:29:36.264Z,10.94
2023-10-09T05:32:29.385Z,11.12
2023-10-09T05:35:17.117Z,11.01
2023-10-09T05:38:16.223Z,11.33
2023-10-09T05:41:22.402Z,11.09
2023-10-09T05:44:32.340Z,11.45
2023-10-09T05:47:30.429Z,11.43
2023-10-09T05:50:35.566Z,11.24
2023-10-09T05:53:40.615Z,11.06
2023-10-09T05:56:43.200Z,11.07
2023-10-09T05:59:40.893Z,11.38
2023-10-09T06:02:48.752Z,11.42
2023-10-09T06:05:43.535Z,11.03
2023-10-09T06:08:48.654Z,10.89
2023-10-09T06:11:43.738Z,11.11
2023-10-09T06:14:47.938Z,10.73
2023-10-09T06:17:44.873Z,11.28
2023-10-09T06:21:08.165Z,11.38
2023-10-09T06:24:11.133Z,11.34
2023-10-09T06:27:25.666Z,11.80
2023-10-09T06:30:25.908Z,11.70
2023-10-09T06:33:21.888Z,11.10
2023-10-09T06:36:09.892Z,11.56
2023-10-09T06:39:13.582Z,11.88
2023-10-09T06:42:10.729Z,11.52
2023-10-09T06:44:56.084Z,11.63
2023-10-09T06:47:42.490Z,12.01
2023-10-09T06:50:27.706Z,11.92
2023-10-09T06:53:29.420Z,11.73
2023-10-09T06:56:24.238Z,11.49
2023-10-09T06:59:17.216Z,11.58
2023-10-09T07:02:18.866Z,11.86
2023-10-09T07:05:14.165Z,12.05
2023-10-09T07:08:17.935Z,12.10
2023-10-09T07:11:22.420Z,12.07
2023-10-09T07:14:08.019Z,11.70
2023-10-09T07:16:58.726Z,12.00
2023-10-09T07:19:58.675Z,12.59
2023-10-09T07:22:53.989Z,12.50
2023-10-09T07:25:56.291Z,12.34
2023-10-09T07:28:47.009Z,12.17
2023-10-09T07:31:41.136Z,12.63
2023-10-09T07:34:44.408Z,12.67
2023-10-09T07:37:32.306Z,12.75
2023-10-09T07:40:19.366Z,12.80
2023-10-09T07:43:06.433Z,12.87
2023-10-09T07:46:17.747Z,13.01
2023-10-09T07:49:03.794Z,13.66
2023-10-09T07:51:49.261Z,13.33
2023-10-09T07:54:34.238Z,13.31
2023-10-09T07:57:19.317Z,13.42
2023-10-09T08:00:13.754Z,13.48
2023-10-09T08:03:01.969Z,13.84
2023-10-09T08:05:46.726Z,13.90
2023-10-09T08:09:03.997Z,13.75
2023-10-09T08:12:15.283Z,14.21
2023-10-09T08:15:14.175Z,14.35
2023-10-09T08:18:00.677Z,14.11
2023-10-09T08:21:13.721Z,14.07
2023-10-09T08:24:06.296Z,13.41
2023-10-09T08:26:52.192Z,13.85
2023-10-09T08:29:35.937Z,13.88
2023-10-09T08:35:30.979Z,14.68
2023-10-09T08:38:15.836Z,15.20
2023-10-09T08:41:17.346Z,14.93
2023-10-09T08:44:05.131Z,15.44
2023-10-09T08:46:50.199Z,15.75
2023-10-09T08:49:35.701Z,16.30
2023-10-09T08:52:19.984Z,16.30
2023-10-09T08:55:07.037Z,15.04
2023-10-09T08:57:53.765Z,15.84
2023-10-09T09:00:38.096Z,15.45
2023-10-09T09:03:22.807Z,15.87
2023-10-09T09:06:07.420Z,15.07
2023-10-09T09:08:56.357Z,15.20
2023-10-09T09:11:49.964Z,15.12
2023-10-09T09:14:41.692Z,15.04
2023-10-09T09:17:30.622Z,14.51
2023-10-09T09:20:24.316Z,14.67
2023-10-09T09:23:13.614Z,14.96
2023-10-09T09:26:02.601Z,15.50
2023-10-09T09:28:56.472Z,15.91
2023-10-09T09:31:54.786Z,16.12
2023-10-09T09:34:49.111Z,16.29
2023-10-09T09:37:51.877Z,15.84
2023-10-09T09:40:42.673Z,16.06
2023-10-09T09:43:30.178Z,16.05
2023-10-09T09:46:16.293Z,16.28
2023-10-09T09:49:02.870Z,16.67
2023-10-09T09:51:48.264Z,16.89
2023-10-09T09:54:37.477Z,16.57
2023-10-09T09:57:27.453Z,15.91
2023-10-09T10:00:30.682Z,16.53
2023-10-09T10:03:19.833Z,16.42
2023-10-09T10:06:11.317Z,15.91
2023-10-09T10:08:55.624Z,16.15
2023-10-09T10:11:46.996Z,17.43
2023-10-09T10:14:54.570Z,17.69
2023-10-09T10:18:18.878Z,17.90
2023-10-09T10:21:17.574Z,16.90
2023-10-09T10:24:07.064Z,17.36
2023-10-09T10:27:29.020Z,17.57
2023-10-09T10:30:38.206Z,17.37
2023-10-09T10:33:23.950Z,16.96
2023-10-09T10:36:08.210Z,17.52
2023-10-09T10:39:06.258Z,17.64
2023-10-09T10:41:57.573Z,17.38
2023-10-09T10:44:46.246Z,17.32
2023-10-09T10:47:35.512Z,17.20
2023-10-09T10:50:36.977Z,17.11
2023-10-09T10:53:21.429Z,17.19
2023-10-09T10:56:20.086Z,17.50
2023-10-09T10:59:24.178Z,17.28
2023-10-09T11:02:24.464Z,16.84
2023-10-09T11:05:24.795Z,16.62
2023-10-09T11:08:12.564Z,16.89
2023-10-09T11:11:17.495Z,16.87
2023-10-09T11:14:15.906Z,16.48
2023-10-09T11:17:04.312Z,16.56
2023-10-09T11:19:49.657Z,16.34
2023-10-09T11:22:37.708Z,16.50
2023-10-09T11:25:21.125Z,16.54
2023-10-09T11:28:29.412Z,17.23
2023-10-09T11:31:17.576Z,17.26
2023-10-09T11:34:02.743Z,17.21
2023-10-09T11:36:50.427Z,17.81
2023-10-09T11:39:35.949Z,17.39
2023-10-09T11:42:36.943Z,17.78
2023-10-09T11:45:30.190Z,18.08
2023-10-09T11:48:25.915Z,18.20
2023-10-09T11:51:20.358Z,17.36
2023-10-09T11:54:04.781Z,17.68
2023-10-09T11:56:48.915Z,17.89
2023-10-09T11:59:39.058Z,17.83
2023-10-09T12:02:25.144Z,16.75
2023-10-09T12:05:10.042Z,17.18
2023-10-09T12:07:56.264Z,17.49
2023-10-09T12:10:41.671Z,18.11
2023-10-09T12:13:26.858Z,17.64
2023-10-09T12:16:11.645Z,18.05
2023-10-09T12:18:57.499Z,18.20
2023-10-09T12:21:44.333Z,18.24
2023-10-09T12:24:30.452Z,18.22
2023-10-09T12:27:14.541Z,18.38
2023-10-09T12:29:59.685Z,18.24
2023-10-09T12:32:43.877Z,17.39
2023-10-09T12:35:35.562Z,17.20
2023-10-09T12:38:24.041Z,17.75
2023-10-09T12:41:19.392Z,17.95
2023-10-09T12:44:03.845Z,16.80
2023-10-09T12:46:53.695Z,17.27
2023-10-09T12:49:39.596Z,17.37
2023-10-09T12:52:31.224Z,17.64
2023-10-09T12:55:24.039Z,17.79
2023-10-09T12:58:08.710Z,17.39
2023-10-09T13:00:52.969Z,17.31
2023-10-09T13:03:39.937Z,17.07
2023-10-09T13:06:26.057Z,16.84
2023-10-09T13:09:12.456Z,17.06
2023-10-09T13:12:00.920Z,17.21
2023-10-09T13:14:45.028Z,16.92
2023-10-09T13:17:29.590Z,16.61
2023-10-09T13:20:15.283Z,16.35
2023-10-09T13:22:59.413Z,15.85
2023-10-09T13:25:45.860Z,16.56
2023-10-09T13:28:30.340Z,15.99
2023-10-09T13:31:15.768Z,16.56
2023-10-09T13:34:00.656Z,16.64
2023-10-09T13:36:54.377Z,16.41
2023-10-09T13:39:40.972Z,15.98
2023-10-09T13:42:27.275Z,15.86
2023-10-09T13:45:17.071Z,15.69
2023-10-09T13:48:05.597Z,15.62
2023-10-09T13:50:49.630Z,15.84
2023-10-09T13:53:33.624Z,16.19
2023-10-09T13:56:20.532Z,16.34
2023-10-09T13:59:11.986Z,16.31
2023-10-09T14:01:57.092Z,16.40
2023-10-09T14:04:41.148Z,16.61
2023-10-09T14:07:26.450Z,16.59
2023-10-09T14:10:18.624Z,16.59
2023-10-09T14:13:13.362Z,16.50
2023-10-09T14:16:01.192Z,16.37
2023-10-09T14:18:45.468Z,16.47
2023-10-09T14:21:31.181Z,16.50
2023-10-09T14:24:19.710Z,16.40
2023-10-09T14:27:07.650Z,16.05
2023-10-09T14:29:52.836Z,16.28
2023-10-09T14:32:45.440Z,16.40
2023-10-09T14:35:31.630Z,16.22
2023-10-09T14:38:16.518Z,15.98
2023-10-09T14:41:01.350Z,15.83
2023-10-09T14:43:45.707Z,15.71
2023-10-09T14:46:30.646Z,15.77
2023-10-09T14:49:16.233Z,15.69
2023-10-09T14:52:00.457Z,15.49
2023-10-09T14:54:45.802Z,15.42
2023-10-09T14:57:34.892Z,15.44
2023-10-09T15:00:24.896Z,15.66
2023-10-09T15:03:13.443Z,15.31
2023-10-09T15:06:01.193Z,15.41
2023-10-09T15:08:45.380Z,15.18
2023-10-09T15:11:29.784Z,14.87
2023-10-09T15:14:15.298Z,15.19
2023-10-09T15:16:59.573Z,15.28
2023-10-09T15:19:43.710Z,15.08
2023-10-09T15:22:36.642Z,15.13
2023-10-09T15:25:21.012Z,15.17
2023-10-09T15:28:05.354Z,15.23
2023-10-09T15:30:50.542Z,14.91
2023-10-09T15:33:36.517Z,14.89
2023-10-09T15:36:21.872Z,14.61
2023-10-09T15:39:09.450Z,14.86
2023-10-09T15:41:53.404Z,14.84
2023-10-09T15:44:38.587Z,14.83
2023-10-09T15:47:23.905Z,14.79
2023-10-09T15:50:13.083Z,14.72
2023-10-09T15:52:57.616Z,14.81
2023-10-09T15:55:42.964Z,14.78
2023-10-09T15:58:26.980Z,14.67
2023-10-09T16:01:14.104Z,14.50
2023-10-09T16:03:58.252Z,14.41
2023-10-09T16:06:42.650Z,14.33
2023-10-09T16:09:26.826Z,14.51
2023-10-09T16:12:14.281Z,14.44
2023-10-09T16:14:58.404Z,14.20
2023-10-09T16:17:43.444Z,14.21
2023-10-09T16:20:27.969Z,14.40
2023-10-09T16:23:13.960Z,14.42
2023-10-09T16:25:58.550Z,14.34
2023-10-09T16:28:44.214Z,14.36
2023-10-09T16:31:28.415Z,14.28
2023-10-09T16:34:15.235Z,14.25
2023-10-09T16:36:59.568Z,14.29
2023-10-09T16:39:43.567Z,14.17
2023-10-09T16:42:27.488Z,14.21
2023-10-09T16:45:17.298Z,14.27
2023-10-09T16:48:05.102Z,14.12
2023-10-09T16:50:50.397Z,14.18
2023-10-09T16:53:37.852Z,14.31
2023-10-09T16:56:22.214Z,14.21
2023-10-09T16:59:13.962Z,14.39
2023-10-09T17:01:59.370Z,14.28
2023-10-09T17:04:45.570Z,14.25
2023-10-09T17:07:29.764Z,14.25
2023-10-09T17:10:20.986Z,14.35
2023-10-09T17:13:08.308Z,14.30
2023-10-09T17:15:54.532Z,14.45
2023-10-09T17:18:40.457Z,14.28
2023-10-09T17:21:25.214Z,14.02
2023-10-09T17:24:12.419Z,14.19
2023-10-09T17:26:57.099Z,14.45
2023-10-09T17:29:41.505Z,14.42
2023-10-09T17:32:26.458Z,14.29
2023-10-09T17:35:13.366Z,14.40
2023-10-09T17:37:58.045Z,14.38
2023-10-09T17:40:49.530Z,14.40
2023-10-09T17:43:34.070Z,14.26
2023-10-09T17:46:19.534Z,14.40
2023-10-09T17:49:06.302Z,14.47
2023-10-09T17:51:53.383Z,14.55
2023-10-09T17:54:37.573Z,14.61
2023-10-09T17:57:22.665Z,14.60
2023-10-09T18:00:10.362Z,14.59
2023-10-09T18:02:57.931Z,14.50
2023-10-09T18:05:42.609Z,14.50
2023-10-09T18:08:29.436Z,14.43
2023-10-09T18:11:15.905Z,14.42
2023-10-09T18:14:06.465Z,14.28
2023-10-09T18:16:51.015Z,14.25
2023-10-09T18:19:39.745Z,14.24
2023-10-09T18:22:25.552Z,14.06
2023-10-09T18:25:12.904Z,14.19
2023-10-09T18:27:57.868Z,14.17
2023-10-09T18:30:44.451Z,14.19
2023-10-09T18:33:31.645Z,14.19
2023-10-09T18:36:21.593Z,14.20
2023-10-09T18:39:09.685Z,14.20
2023-10-09T18:41:57.663Z,14.04
2023-10-09T18:44:43.165Z,13.37
2023-10-09T18:47:28.032Z,13.42
2023-10-09T18:50:13.925Z,13.06
2023-10-09T18:52:58.661Z,12.98
2023-10-09T18:55:43.327Z,12.56
2023-10-09T18:58:31.696Z,12.71
2023-10-09T19:01:20.909Z,12.51
2023-10-09T19:04:09.659Z,12.04
2023-10-09T19:06:56.210Z,11.97
2023-10-09T19:09:41.889Z,12.18
2023-10-09T19:12:26.410Z,12.23
2023-10-09T19:15:15.034Z,12.10
2023-10-09T19:17:59.440Z,12.20
2023-10-09T19:20:44.575Z,11.68
2023-10-09T19:23:29.225Z,11.81
2023-10-09T19:26:16.003Z,12.04
2023-10-09T19:29:01.066Z,11.94
2023-10-09T19:31:49.388Z,12.26
2023-10-09T19:34:36.026Z,12.18
2023-10-09T19:37:23.052Z,12.16
2023-10-09T19:40:11.353Z,12.11
2023-10-09T19:42:55.890Z,12.17
2023-10-09T19:45:42.099Z,12.57
2023-10-09T19:48:28.162Z,12.29
2023-10-09T19:51:13.928Z,12.32
2023-10-09T19:53:59.373Z,12.24
2023-10-09T19:56:46.423Z,12.62
2023-10-09T19:59:30.985Z,12.70
2023-10-09T20:02:16.085Z,12.81
2023-10-09T20:05:03.066Z,13.14
2023-10-09T20:07:48.513Z,13.40
2023-10-09T20:10:32.814Z,13.32
2023-10-09T20:13:17.129Z,13.46
2023-10-09T20:16:01.442Z,13.39
2023-10-09T20:18:45.850Z,13.40
2023-10-09T20:21:32.669Z,13.68
2023-10-09T20:24:16.786Z,13.90
2023-10-09T20:27:00.866Z,13.95
2023-10-09T20:29:45.118Z,13.91
2023-10-09T20:32:29.080Z,14.09
2023-10-09T20:35:13.987Z,14.06
2023-10-09T20:38:02.811Z,14.23
2023-10-09T20:40:46.988Z,14.24
2023-10-09T20:43:30.956Z,14.42
2023-10-09T20:46:17.210Z,14.20
2023-10-09T20:49:01.673Z,14.35
2023-10-09T20:51:56.571Z,14.27
2023-10-09T20:54:43.123Z,14.56
2023-10-09T20:57:27.074Z,14.52
2023-10-09T21:00:20.196Z,14.62
2023-10-09T21:03:07.302Z,14.83
2023-10-09T21:05:53.385Z,14.59
2023-10-09T21:08:37.212Z,14.68
2023-10-09T21:11:22.751Z,14.88
2023-10-09T21:14:07.424Z,14.93
2023-10-09T21:16:51.662Z,15.05
2023-10-09T21:19:35.679Z,15.14
2023-10-09T21:22:19.618Z,15.07
2023-10-09T21:25:04.557Z,14.95
2023-10-09T21:27:50.426Z,15.11
2023-10-09T21:30:35.036Z,15.10
2023-10-09T21:33:19.014Z,15.23
2023-10-09T21:36:04.654Z,15.00
2023-10-09T21:38:48.869Z,15.09
2023-10-09T21:41:32.995Z,15.20
2023-10-09T21:44:18.321Z,15.11
2023-10-09T21:47:02.623Z,15.04
2023-10-09T21:49:46.829Z,14.77
2023-10-09T21:52:31.187Z,14.42
2023-10-09T21:55:16.912Z,14.42
2023-10-09T21:58:01.818Z,14.87
2023-10-09T22:00:48.426Z,14.88
2023-10-09T22:03:33.235Z,15.22
2023-10-09T22:06:17.197Z,15.26
2023-10-09T22:09:01.513Z,14.74
2023-10-09T22:11:45.861Z,15.14
2023-10-09T22:14:30.175Z,15.21
2023-10-09T22:17:15.747Z,15.04
2023-10-09T22:19:59.936Z,15.33
2023-10-09T22:22:45.414Z,15.02
2023-10-09T22:25:31.317Z,15.26
2023-10-09T22:28:16.034Z,15.22
2023-10-09T22:31:04.786Z,15.30
2023-10-09T22:33:55.596Z,15.13
2023-10-09T22:39:35.185Z,15.34
2023-10-09T22:42:19.281Z,15.16
2023-10-09T22:45:03.682Z,15.33
2023-10-09T22:47:52.738Z,15.51
2023-10-09T22:50:38.462Z,15.52
2023-10-09T22:53:24.191Z,15.58
2023-10-09T22:56:14.464Z,15.46
2023-10-09T22:58:58.941Z,15.26
2023-10-09T23:01:45.850Z,15.32
2023-10-09T23:04:39.341Z,15.32
2023-10-09T23:07:25.488Z,15.43
2023-10-09T23:10:17.218Z,15.28
2023-10-09T23:13:15.861Z,14.79
2023-10-09T23:16:09.213Z,15.08
2023-10-09T23:19:07.216Z,15.06
2023-10-09T23:22:13.983Z,15.39
2023-10-09T23:25:09.730Z,14.79
2023-10-09T23:27:58.412Z,14.78
2023-10-09T23:30:44.540Z,14.48
2023-10-09T23:33:31.418Z,14.47
2023-10-09T23:36:15.470Z,14.50
2023-10-09T23:39:13.852Z,14.44
2023-10-09T23:42:00.129Z,14.84
2023-10-09T23:44:44.671Z,14.93
2023-10-09T23:47:33.215Z,14.75
2023-10-09T23:50:17.681Z,14.61
2023-10-09T23:53:03.580Z,14.49
2023-10-09T23:55:52.966Z,14.80
2023-10-09T23:58:39.328Z,14.92
